createdAt,value
2023-04-25T00:00:12.095Z,0
2023-04-25T00:00:42.099Z,0
2023-04-25T00:01:12.105Z,0
2023-04-25T00:01:42.116Z,0
2023-04-25T00:02:12.144Z,0
2023-04-25T00:02:42.208Z,0
2023-04-25T00:03:12.214Z,0
2023-04-25T00:03:42.285Z,0
2023-04-25T00:04:12.307Z,0
2023-04-25T00:04:42.366Z,0
2023-04-25T00:05:12.226Z,0
2023-04-25T00:05:42.187Z,0
2023-04-25T00:06:12.206Z,0
2023-04-25T00:06:42.175Z,0
2023-04-25T00:07:12.182Z,0
2023-04-25T00:07:42.191Z,0
2023-04-25T00:08:12.199Z,0
2023-04-25T00:08:42.215Z,0
2023-04-25T00:09:12.207Z,0
2023-04-25T00:09:42.216Z,0
2023-04-25T00:10:12.214Z,0
2023-04-25T00:10:42.242Z,0
2023-04-25T00:11:12.230Z,0
2023-04-25T00:11:42.238Z,0
2023-04-25T00:12:12.236Z,0
2023-04-25T00:12:42.250Z,0
2023-04-25T00:13:12.265Z,0
2023-04-25T00:13:42.268Z,0
2023-04-25T00:14:12.266Z,0
2023-04-25T00:14:42.278Z,0
2023-04-25T00:15:12.282Z,0
2023-04-25T00:15:42.303Z,0
2023-04-25T00:16:12.297Z,0
2023-04-25T00:16:42.441Z,0
2023-04-25T00:17:12.305Z,0
2023-04-25T00:17:42.427Z,0
2023-04-25T00:18:12.320Z,0
2023-04-25T00:18:42.328Z,0
2023-04-25T00:19:12.334Z,0
2023-04-25T00:19:42.341Z,0
2023-04-25T00:20:12.359Z,0
2023-04-25T00:20:42.353Z,0
2023-04-25T00:21:12.362Z,0
2023-04-25T00:21:42.390Z,0
2023-04-25T00:22:12.375Z,0
2023-04-25T00:22:42.384Z,0
2023-04-25T00:23:12.395Z,0
2023-04-25T00:23:42.402Z,0
2023-04-25T00:24:12.526Z,0
2023-04-25T00:24:42.405Z,0
2023-04-25T00:25:12.413Z,0
2023-04-25T00:25:42.424Z,0
2023-04-25T00:26:12.438Z,0
2023-04-25T00:26:42.435Z,0
2023-04-25T00:27:12.438Z,0
2023-04-25T00:27:42.443Z,0
2023-04-25T00:28:12.459Z,0
2023-04-25T00:28:42.470Z,0
2023-04-25T00:29:42.471Z,0
2023-04-25T00:30:12.487Z,0
2023-04-25T00:30:42.485Z,0
2023-04-25T00:31:12.495Z,0
2023-04-25T00:31:42.524Z,0
2023-04-25T00:32:12.504Z,0
2023-04-25T00:32:42.582Z,0
2023-04-25T00:33:12.568Z,0
2023-04-25T00:33:42.545Z,0
2023-04-25T00:34:12.520Z,0
2023-04-25T00:34:42.538Z,0
2023-04-25T00:35:12.542Z,0
2023-04-25T00:35:42.551Z,0
2023-04-25T00:36:12.582Z,0
2023-04-25T00:36:42.566Z,0
2023-04-25T00:37:12.578Z,0
2023-04-25T00:37:42.576Z,0
2023-04-25T00:38:42.594Z,0
2023-04-25T00:39:12.594Z,0
2023-04-25T00:39:42.609Z,0
2023-04-25T00:40:12.618Z,0
2023-04-25T00:40:42.608Z,0
2023-04-25T00:41:12.628Z,0
2023-04-25T00:41:42.664Z,0
2023-04-25T00:42:12.623Z,0
2023-04-25T00:42:42.655Z,0
2023-04-25T00:43:12.639Z,0
2023-04-25T00:43:42.656Z,0
2023-04-25T00:44:12.675Z,0
2023-04-25T00:44:42.676Z,0
2023-04-25T00:45:12.673Z,0
2023-04-25T00:45:43.391Z,0
2023-04-25T00:46:12.702Z,0
2023-04-25T00:46:42.701Z,0
2023-04-25T00:47:12.686Z,0
2023-04-25T00:47:42.733Z,0
2023-04-25T00:48:12.713Z,0
2023-04-25T00:48:42.723Z,0
2023-04-25T00:49:12.735Z,0
2023-04-25T00:49:42.777Z,0
2023-04-25T00:50:12.758Z,0
2023-04-25T00:50:42.765Z,0
2023-04-25T00:51:12.761Z,0
2023-04-25T00:51:42.760Z,0
2023-04-25T00:52:12.762Z,0
2023-04-25T00:52:42.774Z,0
2023-04-25T00:53:12.784Z,0
2023-04-25T00:53:42.787Z,0
2023-04-25T00:54:12.801Z,0
2023-04-25T00:54:42.799Z,0
2023-04-25T00:55:12.802Z,0
2023-04-25T00:55:42.801Z,0
2023-04-25T00:56:12.816Z,0
2023-04-25T00:56:42.842Z,0
2023-04-25T00:57:12.960Z,0
2023-04-25T00:57:42.857Z,0
2023-04-25T00:58:42.858Z,0
2023-04-25T00:59:12.861Z,0
2023-04-25T00:59:42.877Z,0
2023-04-25T01:00:12.875Z,0
2023-04-25T01:00:42.921Z,0
2023-04-25T01:01:12.901Z,0
2023-04-25T01:01:56.970Z,0
2023-04-25T01:02:27.037Z,0
2023-04-25T01:02:56.974Z,0
2023-04-25T01:03:26.992Z,0
2023-04-25T01:03:57.091Z,0
2023-04-25T01:04:26.932Z,0
2023-04-25T01:04:56.929Z,0
2023-04-25T01:05:26.934Z,0
2023-04-25T01:05:56.939Z,0
2023-04-25T01:06:26.948Z,0
2023-04-25T01:06:56.951Z,0
2023-04-25T01:07:26.946Z,0
2023-04-25T01:07:56.962Z,0
2023-04-25T01:08:26.967Z,0
2023-04-25T01:08:56.970Z,0
2023-04-25T01:09:26.983Z,0
2023-04-25T01:09:56.986Z,0
2023-04-25T01:10:27.116Z,0
2023-04-25T01:10:57.002Z,0
2023-04-25T01:11:27.008Z,0
2023-04-25T01:11:57.016Z,0
2023-04-25T01:12:27.038Z,0
2023-04-25T01:12:57.035Z,0
2023-04-25T01:13:27.038Z,0
2023-04-25T01:13:57.052Z,0
2023-04-25T01:14:27.059Z,0
2023-04-25T01:14:57.068Z,0
2023-04-25T01:15:27.051Z,0
2023-04-25T01:15:57.070Z,0
2023-04-25T01:16:27.093Z,0
2023-04-25T01:16:57.081Z,0
2023-04-25T01:17:27.089Z,0
2023-04-25T01:17:57.096Z,0
2023-04-25T01:18:27.105Z,0
2023-04-25T01:18:57.136Z,0
2023-04-25T01:19:27.106Z,0
2023-04-25T01:19:57.143Z,0
2023-04-25T01:20:27.123Z,0
2023-04-25T01:20:57.138Z,0
2023-04-25T01:21:27.140Z,0
2023-04-25T01:21:57.148Z,0
2023-04-25T01:22:27.165Z,0
2023-04-25T01:22:57.167Z,0
2023-04-25T01:23:27.179Z,0
2023-04-25T01:23:57.164Z,0
2023-04-25T01:24:27.182Z,0
2023-04-25T01:24:57.182Z,0
2023-04-25T01:25:27.193Z,0
2023-04-25T01:25:57.196Z,0
2023-04-25T01:26:27.202Z,0
2023-04-25T01:26:57.221Z,0
2023-04-25T01:27:27.226Z,0
2023-04-25T01:27:57.226Z,0
2023-04-25T01:28:27.218Z,0
2023-04-25T01:28:57.245Z,0
2023-04-25T01:29:27.255Z,0
2023-04-25T01:29:57.260Z,0
2023-04-25T01:30:27.256Z,0
2023-04-25T01:30:57.276Z,0
2023-04-25T01:31:27.285Z,0
2023-04-25T01:31:57.304Z,0
2023-04-25T01:32:27.306Z,0
2023-04-25T01:32:57.321Z,0
2023-04-25T01:33:27.296Z,0
2023-04-25T01:33:57.304Z,0
2023-04-25T01:34:27.313Z,0
2023-04-25T01:34:57.314Z,0
2023-04-25T01:35:27.327Z,0
2023-04-25T01:35:57.327Z,0
2023-04-25T01:36:27.334Z,0
2023-04-25T01:36:57.340Z,0
2023-04-25T01:37:27.345Z,0
2023-04-25T01:37:57.356Z,0
2023-04-25T01:38:27.361Z,0
2023-04-25T01:38:57.365Z,0
2023-04-25T01:39:27.373Z,0
2023-04-25T01:39:57.380Z,0
2023-04-25T01:40:27.387Z,0
2023-04-25T01:40:57.395Z,0
2023-04-25T01:41:27.402Z,0
2023-04-25T01:41:57.682Z,0
2023-04-25T01:42:27.406Z,0
2023-04-25T01:42:57.473Z,0
2023-04-25T01:43:27.440Z,0
2023-04-25T01:43:57.433Z,0
2023-04-25T01:44:27.445Z,0
2023-04-25T01:44:57.455Z,0
2023-04-25T01:45:27.465Z,0
2023-04-25T01:45:57.490Z,0
2023-04-25T01:46:27.498Z,0
2023-04-25T01:46:57.476Z,0
2023-04-25T01:47:27.513Z,0
2023-04-25T01:47:57.487Z,0
2023-04-25T01:48:27.488Z,0
2023-04-25T01:48:57.494Z,0
2023-04-25T01:49:27.510Z,0
2023-04-25T01:49:57.507Z,0
2023-04-25T01:50:27.541Z,0
2023-04-25T01:50:57.524Z,0
2023-04-25T01:51:27.544Z,0
2023-04-25T01:51:57.539Z,0
2023-04-25T01:52:27.546Z,0
2023-04-25T01:52:57.565Z,0
2023-04-25T01:53:27.557Z,0
2023-04-25T01:53:58.411Z,0
2023-04-25T01:54:27.572Z,0
2023-04-25T01:54:57.581Z,0
2023-04-25T01:55:27.583Z,0
2023-04-25T01:55:57.601Z,0
2023-04-25T01:56:27.594Z,0
2023-04-25T01:56:57.620Z,0
2023-04-25T01:57:27.620Z,0
2023-04-25T01:57:57.622Z,0
2023-04-25T01:58:27.635Z,0
2023-04-25T01:58:57.632Z,0
2023-04-25T01:59:27.632Z,0
2023-04-25T01:59:57.643Z,0
2023-04-25T02:00:27.651Z,0
2023-04-25T02:00:57.666Z,0
2023-04-25T02:01:27.690Z,0
2023-04-25T02:01:57.725Z,0
2023-04-25T02:02:27.730Z,0
2023-04-25T02:02:57.782Z,0
2023-04-25T02:03:27.740Z,0
2023-04-25T02:03:58.042Z,0
2023-04-25T02:04:27.810Z,0
2023-04-25T02:04:57.710Z,0
2023-04-25T02:05:27.726Z,0
2023-04-25T02:05:57.726Z,0
2023-04-25T02:06:27.752Z,0
2023-04-25T02:06:57.738Z,0
2023-04-25T02:07:27.739Z,0
2023-04-25T02:07:57.763Z,0
2023-04-25T02:08:27.756Z,0
2023-04-25T02:08:57.781Z,0
2023-04-25T02:09:27.761Z,0
2023-04-25T02:09:57.791Z,0
2023-04-25T02:10:27.792Z,0
2023-04-25T02:10:57.795Z,0
2023-04-25T02:11:27.791Z,0
2023-04-25T02:11:57.810Z,0
2023-04-25T02:12:27.933Z,0
2023-04-25T02:12:57.816Z,0
2023-04-25T02:13:27.839Z,0
2023-04-25T02:13:57.832Z,0
2023-04-25T02:14:27.881Z,0
2023-04-25T02:14:57.838Z,0
2023-04-25T02:15:27.858Z,0
2023-04-25T02:15:57.929Z,0
2023-04-25T02:16:27.929Z,0
2023-04-25T02:16:58.056Z,0
2023-04-25T02:17:27.872Z,0
2023-04-25T02:17:57.924Z,0
2023-04-25T02:18:27.894Z,0
2023-04-25T02:18:57.903Z,0
2023-04-25T02:19:27.905Z,0
2023-04-25T02:19:57.917Z,0
2023-04-25T02:20:27.914Z,0
2023-04-25T02:20:57.922Z,0
2023-04-25T02:21:27.925Z,0
2023-04-25T02:21:57.937Z,0
2023-04-25T02:22:27.938Z,0
2023-04-25T02:22:57.960Z,0
2023-04-25T02:23:27.971Z,0
2023-04-25T02:23:57.969Z,0
2023-04-25T02:24:27.968Z,0
2023-04-25T02:24:57.982Z,0
2023-04-25T02:25:27.990Z,0
2023-04-25T02:25:57.997Z,0
2023-04-25T02:26:28.005Z,0
2023-04-25T02:26:58.006Z,0
2023-04-25T02:27:28.008Z,0
2023-04-25T02:27:58.027Z,0
2023-04-25T02:28:28.020Z,0
2023-04-25T02:28:58.045Z,0
2023-04-25T02:29:28.043Z,0
2023-04-25T02:29:58.053Z,0
2023-04-25T02:30:28.058Z,0
2023-04-25T02:30:58.099Z,0
2023-04-25T02:31:28.091Z,0
2023-04-25T02:31:58.085Z,0
2023-04-25T02:32:28.111Z,0
2023-04-25T02:32:58.163Z,0
2023-04-25T02:33:28.093Z,0
2023-04-25T02:33:58.094Z,0
2023-04-25T02:34:28.112Z,0
2023-04-25T02:34:58.112Z,0
2023-04-25T02:35:28.125Z,0
2023-04-25T02:35:58.127Z,0
2023-04-25T02:36:28.132Z,0
2023-04-25T02:36:58.138Z,0
2023-04-25T02:37:28.140Z,0
2023-04-25T02:37:58.156Z,0
2023-04-25T02:38:28.158Z,0
2023-04-25T02:38:58.163Z,0
2023-04-25T02:39:28.175Z,0
2023-04-25T02:39:58.181Z,0
2023-04-25T02:40:28.190Z,0
2023-04-25T02:40:58.192Z,0
2023-04-25T02:41:28.201Z,0
2023-04-25T02:41:58.201Z,0
2023-04-25T02:42:28.228Z,0
2023-04-25T02:42:58.225Z,0
2023-04-25T02:43:28.215Z,0
2023-04-25T02:43:58.221Z,0
2023-04-25T02:44:28.234Z,0
2023-04-25T02:44:58.244Z,0
2023-04-25T02:45:28.244Z,0
2023-04-25T02:45:58.253Z,0
2023-04-25T02:46:58.280Z,0
2023-04-25T02:47:28.416Z,0
2023-04-25T02:47:58.327Z,0
2023-04-25T02:48:28.276Z,0
2023-04-25T02:48:58.291Z,0
2023-04-25T02:49:28.302Z,0
2023-04-25T02:49:58.305Z,0
2023-04-25T02:50:28.298Z,0
2023-04-25T02:50:58.326Z,0
2023-04-25T02:51:28.324Z,0
2023-04-25T02:51:58.339Z,0
2023-04-25T02:52:28.329Z,0
2023-04-25T02:52:58.341Z,0
2023-04-25T02:53:28.374Z,0
2023-04-25T02:53:58.366Z,0
2023-04-25T02:54:28.365Z,0
2023-04-25T02:54:58.368Z,0
2023-04-25T02:55:28.539Z,0
2023-04-25T02:55:58.383Z,0
2023-04-25T02:56:28.396Z,0
2023-04-25T02:56:58.394Z,0
2023-04-25T02:57:28.404Z,0
2023-04-25T02:57:58.408Z,0
2023-04-25T02:58:28.428Z,0
2023-04-25T02:58:58.428Z,0
2023-04-25T02:59:28.439Z,0
2023-04-25T02:59:58.436Z,0
2023-04-25T03:00:28.461Z,0
2023-04-25T03:00:58.474Z,0
2023-04-25T03:01:28.547Z,0
2023-04-25T03:01:58.458Z,0
2023-04-25T03:02:28.493Z,0
2023-04-25T03:02:58.621Z,0
2023-04-25T03:03:28.561Z,0
2023-04-25T03:03:58.506Z,0
2023-04-25T03:04:28.554Z,0
2023-04-25T03:04:58.504Z,0
2023-04-25T03:05:28.514Z,0
2023-04-25T03:05:58.518Z,0
2023-04-25T03:06:28.529Z,0
2023-04-25T03:06:58.529Z,0
2023-04-25T03:07:28.544Z,0
2023-04-25T03:07:58.530Z,0
2023-04-25T03:08:28.546Z,0
2023-04-25T03:08:58.578Z,0
2023-04-25T03:09:28.577Z,0
2023-04-25T03:09:58.568Z,0
2023-04-25T03:10:28.565Z,0
2023-04-25T03:10:58.578Z,0
2023-04-25T03:11:28.601Z,0
2023-04-25T03:11:58.590Z,0
2023-04-25T03:12:28.597Z,0
2023-04-25T03:12:58.609Z,0
2023-04-25T03:13:28.636Z,0
2023-04-25T03:13:58.622Z,0
2023-04-25T03:14:28.644Z,0
2023-04-25T03:14:58.640Z,0
2023-04-25T03:15:28.648Z,0
2023-04-25T03:15:58.640Z,0
2023-04-25T03:16:28.682Z,0
2023-04-25T03:16:58.709Z,0
2023-04-25T03:17:28.687Z,0
2023-04-25T03:17:58.722Z,0
2023-04-25T03:18:28.697Z,0
2023-04-25T03:18:58.683Z,0
2023-04-25T03:19:28.695Z,0
2023-04-25T03:19:58.702Z,0
2023-04-25T03:20:28.703Z,0
2023-04-25T03:20:58.705Z,0
2023-04-25T03:21:28.710Z,0
2023-04-25T03:21:58.730Z,0
2023-04-25T03:22:28.722Z,0
2023-04-25T03:22:58.731Z,0
2023-04-25T03:23:28.744Z,0
2023-04-25T03:23:58.750Z,0
2023-04-25T03:24:28.754Z,0
2023-04-25T03:24:58.762Z,0
2023-04-25T03:25:28.772Z,0
2023-04-25T03:25:58.785Z,0
2023-04-25T03:26:28.796Z,0
2023-04-25T03:26:58.792Z,0
2023-04-25T03:27:28.808Z,0
2023-04-25T03:27:58.803Z,0
2023-04-25T03:28:28.824Z,0
2023-04-25T03:28:58.819Z,0
2023-04-25T03:29:28.828Z,0
2023-04-25T03:29:58.859Z,0
2023-04-25T03:30:28.834Z,0
2023-04-25T03:30:58.849Z,0
2023-04-25T03:31:28.871Z,0
2023-04-25T03:31:58.912Z,0
2023-04-25T03:32:28.889Z,0
2023-04-25T03:32:58.894Z,0
2023-04-25T03:33:28.884Z,0
2023-04-25T03:33:58.891Z,0
2023-04-25T03:34:28.902Z,0
2023-04-25T03:34:58.908Z,0
2023-04-25T03:35:28.913Z,0
2023-04-25T03:35:58.906Z,0
2023-04-25T03:36:28.919Z,0
2023-04-25T03:36:58.922Z,0
2023-04-25T03:37:28.936Z,0
2023-04-25T03:37:58.939Z,0
2023-04-25T03:38:28.944Z,0
2023-04-25T03:38:58.949Z,0
2023-04-25T03:39:28.956Z,0
2023-04-25T03:39:58.984Z,0
2023-04-25T03:40:28.990Z,0
2023-04-25T03:40:59.025Z,0
2023-04-25T03:41:28.980Z,0
2023-04-25T03:41:58.994Z,0
2023-04-25T03:42:28.991Z,0
2023-04-25T03:42:59.002Z,0
2023-04-25T03:43:29.004Z,0
2023-04-25T03:43:59.025Z,0
2023-04-25T03:44:29.038Z,0
2023-04-25T03:44:59.023Z,0
2023-04-25T03:45:29.056Z,0
2023-04-25T03:45:59.071Z,0
2023-04-25T03:46:29.114Z,0
2023-04-25T03:46:59.053Z,0
2023-04-25T03:47:29.074Z,0
2023-04-25T03:47:59.100Z,0
2023-04-25T03:48:29.076Z,0
2023-04-25T03:48:59.071Z,0
2023-04-25T03:49:29.085Z,0
2023-04-25T03:49:59.094Z,0
2023-04-25T03:50:29.108Z,0
2023-04-25T03:50:59.106Z,0
2023-04-25T03:51:29.120Z,0
2023-04-25T03:51:59.122Z,0
2023-04-25T03:52:29.129Z,0
2023-04-25T03:52:59.146Z,0
2023-04-25T03:53:29.140Z,0
2023-04-25T03:53:59.183Z,0
2023-04-25T03:54:29.145Z,0
2023-04-25T03:54:59.171Z,0
2023-04-25T03:55:29.158Z,0
2023-04-25T03:55:59.193Z,0
2023-04-25T03:56:29.175Z,0
2023-04-25T03:56:59.195Z,0
2023-04-25T03:57:29.187Z,0
2023-04-25T03:57:59.206Z,0
2023-04-25T03:58:29.203Z,0
2023-04-25T03:58:59.227Z,0
2023-04-25T03:59:29.217Z,0
2023-04-25T03:59:59.226Z,0
2023-04-25T04:00:29.246Z,0.38
2023-04-25T04:00:59.265Z,0.77
2023-04-25T04:01:29.252Z,0.83
2023-04-25T04:01:40.292Z,1.02
2023-04-25T04:01:59.299Z,1.09
2023-04-25T04:02:05.317Z,0.52
2023-04-25T04:02:29.371Z,1.34
2023-04-25T04:02:48.365Z,2.54
2023-04-25T04:02:59.432Z,1.68
2023-04-25T04:03:09.443Z,0.57
2023-04-25T04:03:29.354Z,1.3
2023-04-25T04:03:36.408Z,0.91
2023-04-25T04:03:48.463Z,2.35
2023-04-25T04:03:59.549Z,1.11
2023-04-25T04:04:29.536Z,1.84
2023-04-25T04:04:42.485Z,2.24
2023-04-25T04:04:55.618Z,1.19
2023-04-25T04:04:59.427Z,1.28
2023-04-25T04:05:00.477Z,2.34
2023-04-25T04:05:18.312Z,2.28
2023-04-25T04:05:29.343Z,1.39
2023-04-25T04:05:59.328Z,1.46
2023-04-25T04:06:25.311Z,5.14
2023-04-25T04:07:01.300Z,3.63
2023-04-25T04:07:07.305Z,2.34
2023-04-25T04:07:28.300Z,4.98
2023-04-25T04:08:01.317Z,2.3
2023-04-25T04:08:29.334Z,5.46
2023-04-25T04:08:31.301Z,2.11
2023-04-25T04:09:15.304Z,2.19
2023-04-25T04:09:29.358Z,3.75
2023-04-25T04:09:34.304Z,4.54
2023-04-25T04:10:06.311Z,2.64
2023-04-25T04:10:17.318Z,2.6
2023-04-25T04:10:31.309Z,2.66
2023-04-25T04:10:37.303Z,3.88
2023-04-25T04:11:09.317Z,3.15
2023-04-25T04:11:25.317Z,5.09
2023-04-25T04:11:37.312Z,5.03
2023-04-25T04:12:12.315Z,5.36
2023-04-25T04:12:29.394Z,3.55
2023-04-25T04:12:36.310Z,3.55
2023-04-25T04:12:46.304Z,5.37
2023-04-25T04:13:02.316Z,2.48
2023-04-25T04:13:29.408Z,4.14
2023-04-25T04:13:42.318Z,5.24
2023-04-25T04:13:48.590Z,2.85
2023-04-25T04:14:06.324Z,3.17
2023-04-25T04:14:29.421Z,2.28
2023-04-25T04:14:59.428Z,4.13
2023-04-25T04:15:09.318Z,3.78
2023-04-25T04:15:29.457Z,6.04
2023-04-25T04:15:46.339Z,5.59
2023-04-25T04:15:59.468Z,4.68
2023-04-25T04:16:10.385Z,3.99
2023-04-25T04:16:19.339Z,2.45
2023-04-25T04:16:42.321Z,6.44
2023-04-25T04:16:47.324Z,4.49
2023-04-25T04:16:59.467Z,6.26
2023-04-25T04:17:29.481Z,6.12
2023-04-25T04:17:59.491Z,6.29
2023-04-25T04:18:27.320Z,4.23
2023-04-25T04:18:29.472Z,6.19
2023-04-25T04:18:32.327Z,6.11
2023-04-25T04:18:59.500Z,5.85
2023-04-25T04:19:29.492Z,6.16
2023-04-25T04:19:59.506Z,6.35
2023-04-25T04:20:29.515Z,6.15
2023-04-25T04:20:54.326Z,7.46
2023-04-25T04:20:59.511Z,6.79
2023-04-25T04:21:33.333Z,7.12
2023-04-25T04:21:59.531Z,6.57
2023-04-25T04:22:25.344Z,6.05
2023-04-25T04:22:33.331Z,7.08
2023-04-25T04:22:59.540Z,6.7
2023-04-25T04:23:29.540Z,7.73
2023-04-25T04:23:38.236Z,5.67
2023-04-25T04:23:59.547Z,7.8
2023-04-25T04:24:29.568Z,8
2023-04-25T04:24:40.336Z,6.7
2023-04-25T04:24:59.564Z,8.04
2023-04-25T04:25:29.589Z,8.5
2023-04-25T04:25:46.343Z,5.54
2023-04-25T04:25:59.576Z,8.32
2023-04-25T04:26:29.606Z,8.43
2023-04-25T04:26:59.593Z,7.91
2023-04-25T04:27:16.338Z,7.4
2023-04-25T04:27:59.606Z,7.23
2023-04-25T04:28:12.363Z,9.2
2023-04-25T04:28:29.620Z,9.07
2023-04-25T04:28:59.621Z,7.66
2023-04-25T04:29:25.344Z,6.52
2023-04-25T04:29:29.625Z,9.61
2023-04-25T04:29:59.624Z,9.81
2023-04-25T04:30:16.352Z,6.88
2023-04-25T04:30:29.634Z,10.11
2023-04-25T04:30:43.354Z,7.41
2023-04-25T04:30:59.688Z,10.11
2023-04-25T04:31:12.370Z,7.13
2023-04-25T04:31:19.663Z,11.48
2023-04-25T04:31:29.661Z,11.52
2023-04-25T04:31:46.403Z,11.34
2023-04-25T04:31:59.689Z,11.45
2023-04-25T04:32:21.422Z,10.09
2023-04-25T04:32:29.672Z,11.97
2023-04-25T04:32:32.409Z,7.83
2023-04-25T04:32:59.701Z,11.8
2023-04-25T04:33:28.355Z,10.53
2023-04-25T04:33:29.725Z,10.53
2023-04-25T04:33:59.719Z,10.86
2023-04-25T04:34:29.704Z,11.07
2023-04-25T04:34:42.368Z,11.63
2023-04-25T04:34:59.718Z,11.59
2023-04-25T04:35:29.717Z,11.34
2023-04-25T04:35:44.366Z,11.64
2023-04-25T04:36:29.721Z,13.28
2023-04-25T04:36:55.393Z,14.03
2023-04-25T04:37:22.356Z,10.98
2023-04-25T04:37:29.734Z,12.62
2023-04-25T04:37:59.738Z,12.7
2023-04-25T04:38:26.400Z,11.88
2023-04-25T04:38:29.750Z,12.63
2023-04-25T04:38:59.757Z,15.32
2023-04-25T04:39:25.602Z,14.54
2023-04-25T04:39:29.757Z,14.65
2023-04-25T04:39:31.360Z,15.63
2023-04-25T04:39:59.770Z,16.24
2023-04-25T04:40:29.774Z,15.18
2023-04-25T04:40:31.365Z,16.9
2023-04-25T04:40:59.777Z,15.58
2023-04-25T04:41:04.393Z,16.99
2023-04-25T04:41:29.782Z,15.67
2023-04-25T04:41:33.380Z,17.49
2023-04-25T04:41:38.371Z,15.71
2023-04-25T04:41:59.803Z,15.43
2023-04-25T04:42:07.380Z,15.74
2023-04-25T04:42:29.807Z,15.37
2023-04-25T04:42:36.364Z,15.89
2023-04-25T04:42:43.370Z,17.9
2023-04-25T04:42:59.812Z,15.38
2023-04-25T04:43:29.814Z,15.57
2023-04-25T04:43:36.372Z,16.45
2023-04-25T04:43:48.519Z,16.35
2023-04-25T04:43:59.825Z,15.5
2023-04-25T04:44:12.392Z,16.07
2023-04-25T04:44:29.833Z,15.41
2023-04-25T04:44:39.385Z,16.4
2023-04-25T04:44:51.373Z,16.26
2023-04-25T04:44:59.835Z,16.59
2023-04-25T04:45:15.389Z,15.69
2023-04-25T04:45:29.846Z,16.15
2023-04-25T04:45:45.388Z,16.89
2023-04-25T04:45:55.374Z,16.8
2023-04-25T04:45:59.851Z,15.61
2023-04-25T04:46:19.464Z,15.54
2023-04-25T04:46:29.880Z,15.83
2023-04-25T04:46:47.435Z,15.92
2023-04-25T04:46:56.412Z,17.34
2023-04-25T04:46:59.931Z,17.99
2023-04-25T04:47:29.893Z,17.25
2023-04-25T04:47:48.408Z,18.4
2023-04-25T04:47:57.415Z,17.1
2023-04-25T04:47:59.939Z,16.72
2023-04-25T04:48:25.386Z,16.31
2023-04-25T04:48:29.902Z,18.26
2023-04-25T04:48:50.384Z,16.43
2023-04-25T04:48:57.490Z,17.61
2023-04-25T04:48:59.902Z,17.32
2023-04-25T04:49:26.375Z,17.8
2023-04-25T04:49:29.907Z,16.36
2023-04-25T04:49:50.386Z,18.18
2023-04-25T04:49:59.915Z,17.3
2023-04-25T04:50:29.415Z,15.74
2023-04-25T04:50:29.916Z,15.74
2023-04-25T04:50:57.402Z,14.86
2023-04-25T04:50:59.918Z,15.46
2023-04-25T04:51:29.920Z,15.49
2023-04-25T04:51:59.957Z,13.33
2023-04-25T04:52:02.411Z,13.19
2023-04-25T04:52:29.939Z,13.27
2023-04-25T04:52:59.950Z,12.43
2023-04-25T04:53:00.388Z,13.18
2023-04-25T04:53:26.396Z,13.25
2023-04-25T04:53:29.958Z,13.38
2023-04-25T04:53:59.959Z,13.17
2023-04-25T04:54:08.389Z,9.54
2023-04-25T04:54:29.984Z,12.75
2023-04-25T04:54:33.401Z,9.18
2023-04-25T04:54:59.977Z,14.19
2023-04-25T04:55:24.395Z,15.79
2023-04-25T04:55:30.393Z,14.05
2023-04-25T04:55:36.394Z,16.06
2023-04-25T04:55:59.987Z,17.58
2023-04-25T04:56:29.994Z,19.82
2023-04-25T04:56:36.405Z,20.44
2023-04-25T04:56:54.399Z,21.74
2023-04-25T04:56:59.999Z,21.97
2023-04-25T04:57:30.022Z,23.55
2023-04-25T04:57:47.414Z,24.12
2023-04-25T04:58:00.011Z,24.38
2023-04-25T04:58:30.039Z,24.58
2023-04-25T04:59:00.029Z,24.84
2023-04-25T04:59:18.400Z,25.6
2023-04-25T04:59:30.050Z,25.05
2023-04-25T05:00:00.062Z,25.01
2023-04-25T05:00:30.145Z,24.53
2023-04-25T05:01:00.090Z,24.62
2023-04-25T05:01:30.163Z,23.86
2023-04-25T05:01:44.411Z,14.52
2023-04-25T05:02:00.094Z,23.83
2023-04-25T05:02:30.149Z,23.24
2023-04-25T05:03:00.217Z,23.48
2023-04-25T05:03:21.597Z,22.8
2023-04-25T05:03:30.157Z,23.83
2023-04-25T05:04:30.178Z,23.41
2023-04-25T05:04:47.441Z,22.69
2023-04-25T05:05:30.129Z,20.72
2023-04-25T05:05:35.426Z,20.42
2023-04-25T05:06:00.137Z,19.05
2023-04-25T05:06:12.433Z,18.28
2023-04-25T05:06:30.179Z,17.23
2023-04-25T05:06:41.460Z,15.18
2023-04-25T05:07:00.181Z,14.91
2023-04-25T05:07:12.421Z,16.25
2023-04-25T05:07:30.174Z,16.09
2023-04-25T05:08:00.164Z,17.65
2023-04-25T05:08:05.420Z,18.52
2023-04-25T05:08:29.416Z,19.68
2023-04-25T05:09:00.168Z,21.72
2023-04-25T05:09:24.424Z,23.2
2023-04-25T05:09:30.217Z,23.39
2023-04-25T05:09:48.427Z,24.43
2023-04-25T05:10:00.198Z,25.38
2023-04-25T05:10:30.194Z,25.53
2023-04-25T05:10:50.431Z,27.51
2023-04-25T05:11:00.197Z,28.51
2023-04-25T05:11:30.223Z,28.09
2023-04-25T05:12:00.222Z,28.43
2023-04-25T05:12:30.224Z,28.2
2023-04-25T05:13:00.247Z,28.74
2023-04-25T05:13:30.240Z,29.27
2023-04-25T05:14:00.240Z,29.89
2023-04-25T05:14:00.426Z,29.99
2023-04-25T05:14:30.246Z,30.43
2023-04-25T05:15:00.253Z,30.89
2023-04-25T05:15:05.435Z,31.61
2023-04-25T05:15:30.290Z,31.87
2023-04-25T05:16:00.312Z,32.41
2023-04-25T05:16:30.278Z,32.41
2023-04-25T05:16:54.493Z,19.9
2023-04-25T05:17:00.349Z,33.75
2023-04-25T05:17:30.314Z,34.43
2023-04-25T05:18:00.314Z,32.28
2023-04-25T05:18:30.307Z,31.67
2023-04-25T05:19:00.319Z,31.18
2023-04-25T05:19:30.318Z,30.73
2023-04-25T05:19:50.450Z,30
2023-04-25T05:20:01.077Z,29.89
2023-04-25T05:20:30.340Z,29.99
2023-04-25T05:21:00.340Z,30.75
2023-04-25T05:21:30.336Z,30.7
2023-04-25T05:22:00.362Z,31.15
2023-04-25T05:22:30.355Z,31.35
2023-04-25T05:23:00.385Z,31.26
2023-04-25T05:23:02.465Z,19.19
2023-04-25T05:23:08.461Z,32.32
2023-04-25T05:23:30.592Z,33.73
2023-04-25T05:24:00.383Z,34.01
2023-04-25T05:24:30.391Z,34.72
2023-04-25T05:24:39.449Z,35.32
2023-04-25T05:25:00.401Z,35.65
2023-04-25T05:25:30.408Z,36.29
2023-04-25T05:26:00.422Z,36.99
2023-04-25T05:26:00.627Z,37.25
2023-04-25T05:26:30.424Z,37.88
2023-04-25T05:27:00.429Z,38.53
2023-04-25T05:27:06.454Z,39.26
2023-04-25T05:27:30.428Z,40.14
2023-04-25T05:27:51.460Z,41.34
2023-04-25T05:28:00.428Z,41.59
2023-04-25T05:28:09.477Z,23.85
2023-04-25T05:28:30.445Z,42.18
2023-04-25T05:29:00.455Z,43.4
2023-04-25T05:29:30.454Z,44.55
2023-04-25T05:30:00.471Z,43.35
2023-04-25T05:30:30.468Z,44.23
2023-04-25T05:31:00.490Z,44.49
2023-04-25T05:31:24.497Z,24.24
2023-04-25T05:31:30.482Z,45.23
2023-04-25T05:32:30.522Z,44.74
2023-04-25T05:32:39.465Z,42.4
2023-04-25T05:33:11.539Z,44.08
2023-04-25T05:33:30.511Z,45.23
2023-04-25T05:33:54.485Z,46.55
2023-04-25T05:34:00.510Z,46.6
2023-04-25T05:34:30.516Z,48.01
2023-04-25T05:35:00.592Z,49.72
2023-04-25T05:35:30.590Z,51.04
2023-04-25T05:35:33.498Z,29.06
2023-04-25T05:36:00.556Z,42.33
2023-04-25T05:36:02.482Z,11.96
2023-04-25T05:36:25.474Z,25.1
2023-04-25T05:36:30.554Z,48.9
2023-04-25T05:36:31.475Z,48.9
2023-04-25T05:36:37.476Z,31.84
2023-04-25T05:37:05.480Z,35.65
2023-04-25T05:37:29.476Z,39.19
2023-04-25T05:37:30.567Z,48.15
2023-04-25T05:37:35.472Z,67.52
2023-04-25T05:38:00.573Z,69.31
2023-04-25T05:38:31.524Z,71.45
2023-04-25T05:39:00.581Z,73.56
2023-04-25T05:39:26.479Z,75.27
2023-04-25T05:40:00.600Z,78.09
2023-04-25T05:40:08.485Z,79.29
2023-04-25T05:40:30.616Z,82.31
2023-04-25T05:41:00.633Z,88.68
2023-04-25T05:41:29.486Z,95.36
2023-04-25T05:41:30.633Z,95.41
2023-04-25T05:42:00.640Z,100.47
2023-04-25T05:42:30.630Z,104.32
2023-04-25T05:42:54.487Z,105.77
2023-04-25T05:43:30.685Z,110.09
2023-04-25T05:44:00.763Z,110.24
2023-04-25T05:44:30.659Z,110.08
2023-04-25T05:45:00.667Z,110.75
2023-04-25T05:45:08.488Z,111.48
2023-04-25T05:45:30.664Z,109.38
2023-04-25T05:45:53.512Z,105.7
2023-04-25T05:46:00.692Z,102.87
2023-04-25T05:46:14.558Z,100.37
2023-04-25T05:46:30.718Z,59.75
2023-04-25T05:47:00.703Z,91.72
2023-04-25T05:47:30.720Z,89.55
2023-04-25T05:48:00.729Z,89.16
2023-04-25T05:48:05.527Z,88.78
2023-04-25T05:48:30.720Z,87.92
2023-04-25T05:49:00.722Z,85.25
2023-04-25T05:49:05.496Z,84.55
2023-04-25T05:49:30.727Z,81.22
2023-04-25T05:50:00.734Z,77.12
2023-04-25T05:50:12.516Z,75.5
2023-04-25T05:50:30.749Z,73.65
2023-04-25T05:51:00.751Z,70.72
2023-04-25T05:51:30.755Z,70.76
2023-04-25T05:52:00.769Z,71.35
2023-04-25T05:52:30.804Z,71.02
2023-04-25T05:53:00.795Z,71.76
2023-04-25T05:53:30.790Z,70.41
2023-04-25T05:54:00.808Z,70.6
2023-04-25T05:54:30.832Z,69.67
2023-04-25T05:54:41.507Z,66.87
2023-04-25T05:55:30.829Z,70.66
2023-04-25T05:56:00.835Z,73.04
2023-04-25T05:56:26.517Z,41.3
2023-04-25T05:56:31.504Z,74.68
2023-04-25T05:57:00.841Z,72.96
2023-04-25T05:57:20.514Z,70.84
2023-04-25T05:57:30.831Z,71.65
2023-04-25T05:57:51.552Z,67.28
2023-04-25T05:58:00.842Z,66.28
2023-04-25T05:58:12.535Z,63.54
2023-04-25T05:58:29.505Z,60.02